createdAt,value
2017-05-03T00:02:20.789Z,90.20
2017-05-03T00:04:50.093Z,90.20
2017-05-03T00:07:19.062Z,90.20
2017-05-03T00:09:48.023Z,90.50
2017-05-03T00:12:18.094Z,90.70
2017-05-03T00:14:47.066Z,90.80
2017-05-03T00:17:16.018Z,90.90
2017-05-03T00:19:45.738Z,91.00
2017-05-03T00:22:14.742Z,91.00
2017-05-03T00:24:43.999Z,91.00
2017-05-03T00:27:13.611Z,90.90
2017-05-03T00:29:42.609Z,90.80
2017-05-03T00:32:12.314Z,90.80
2017-05-03T00:34:41.924Z,90.70
2017-05-03T00:37:11.283Z,90.60
2017-05-03T00:39:40.231Z,90.60
2017-05-03T00:42:09.179Z,90.60
2017-05-03T00:44:38.148Z,90.50
2017-05-03T00:47:07.093Z,90.60
2017-05-03T00:49:36.340Z,90.90
2017-05-03T00:52:05.294Z,90.70
2017-05-03T00:54:34.268Z,90.80
2017-05-03T00:57:04.240Z,90.80
2017-05-03T00:59:33.190Z,90.80
2017-05-03T01:02:02.138Z,90.80
2017-05-03T01:04:31.518Z,90.90
2017-05-03T01:07:00.469Z,90.90
2017-05-03T01:09:29.435Z,91.00
2017-05-03T01:11:59.413Z,91.00
2017-05-03T01:14:28.383Z,91.00
2017-05-03T01:16:57.337Z,91.10
2017-05-03T01:19:26.302Z,91.20
2017-05-03T01:21:55.265Z,91.50
2017-05-03T01:24:24.577Z,91.20
2017-05-03T01:26:53.552Z,91.30
2017-05-03T01:29:22.490Z,91.30
2017-05-03T01:31:51.756Z,91.30
2017-05-03T01:34:20.710Z,91.30
2017-05-03T01:36:49.673Z,91.30
2017-05-03T01:39:19.403Z,91.30
2017-05-03T01:41:48.354Z,91.60
2017-05-03T01:44:18.437Z,91.80
2017-05-03T01:46:47.377Z,91.90
2017-05-03T01:49:17.072Z,91.90
2017-05-03T01:51:46.053Z,92.00
2017-05-03T01:54:15.001Z,91.90
2017-05-03T01:56:44.224Z,92.00
2017-05-03T01:59:13.177Z,92.00
2017-05-03T02:01:42.137Z,92.00
2017-05-03T02:04:12.217Z,92.10
2017-05-03T02:06:41.188Z,92.10
2017-05-03T02:09:10.149Z,92.00
2017-05-03T02:11:40.117Z,92.00
2017-05-03T02:14:09.063Z,92.00
2017-05-03T02:16:38.019Z,92.00
2017-05-03T02:19:06.985Z,92.00
2017-05-03T02:21:35.957Z,92.10
2017-05-03T02:24:05.197Z,92.20
2017-05-03T02:26:34.161Z,92.30
2017-05-03T02:29:03.120Z,92.30
2017-05-03T02:31:32.385Z,92.40
2017-05-03T02:34:01.340Z,92.20
2017-05-03T02:36:30.305Z,92.40
2017-05-03T02:38:59.177Z,92.40
2017-05-03T02:41:28.253Z,92.40
2017-05-03T02:43:58.319Z,92.50
2017-05-03T02:46:27.285Z,92.60
2017-05-03T02:48:56.227Z,92.60
2017-05-03T02:51:25.185Z,92.60
2017-05-03T02:53:54.143Z,92.70
2017-05-03T02:56:23.495Z,92.80
2017-05-03T02:58:52.459Z,92.90
2017-05-03T03:01:21.392Z,93.00
2017-05-03T03:03:50.376Z,93.00
2017-05-03T03:06:19.328Z,93.00
2017-05-03T03:08:48.643Z,92.90
2017-05-03T03:11:17.620Z,92.90
2017-05-03T03:13:46.562Z,92.90
2017-05-03T03:16:16.328Z,92.90
2017-05-03T03:18:45.305Z,92.90
2017-05-03T03:21:14.532Z,93.00
2017-05-03T03:23:44.286Z,93.10
2017-05-03T03:26:13.241Z,93.10
2017-05-03T03:28:42.536Z,93.00
2017-05-03T03:31:11.514Z,92.90
2017-05-03T03:33:40.488Z,93.40
2017-05-03T03:36:09.468Z,93.30
2017-05-03T03:38:38.439Z,93.50
2017-05-03T03:41:07.762Z,93.70
2017-05-03T03:43:36.736Z,93.70
2017-05-03T03:46:05.686Z,93.70
2017-05-03T03:48:34.963Z,93.60
2017-05-03T03:51:04.132Z,93.50
2017-05-03T03:53:33.085Z,93.60
2017-05-03T03:56:02.798Z,93.50
2017-05-03T03:58:32.508Z,93.40
2017-05-03T04:01:02.550Z,93.30
2017-05-03T04:03:31.515Z,93.20
2017-05-03T04:06:01.221Z,93.20
2017-05-03T04:08:30.922Z,93.30
2017-05-03T04:11:00.611Z,93.30
2017-05-03T04:13:29.904Z,93.30
2017-05-03T04:15:58.895Z,93.30
2017-05-03T04:18:27.833Z,93.20
2017-05-03T04:20:57.111Z,93.30
2017-05-03T04:23:26.718Z,93.30
2017-05-03T04:25:55.714Z,93.20
2017-05-03T04:28:25.796Z,93.20
2017-05-03T04:30:54.744Z,93.20
2017-05-03T04:33:23.696Z,93.20
2017-05-03T04:35:52.968Z,93.20
2017-05-03T04:38:21.937Z,93.40
2017-05-03T04:40:50.892Z,93.50
2017-05-03T04:43:20.623Z,93.70
2017-05-03T04:45:49.571Z,93.80
2017-05-03T04:48:18.842Z,93.90
2017-05-03T04:50:47.787Z,94.00
2017-05-03T04:53:16.732Z,94.40
2017-05-03T04:55:46.038Z,94.00
2017-05-03T04:58:15.633Z,94.00
2017-05-03T05:00:44.586Z,93.90
2017-05-03T05:03:13.917Z,93.90
2017-05-03T05:05:42.866Z,93.80
2017-05-03T05:08:11.829Z,93.70
2017-05-03T05:10:41.566Z,93.60
2017-05-03T05:13:10.518Z,93.60
2017-05-03T05:15:39.813Z,93.50
2017-05-03T05:18:08.780Z,93.40
2017-05-03T05:20:37.728Z,93.30
2017-05-03T05:23:06.874Z,93.10
2017-05-03T05:25:36.587Z,93.10
2017-05-03T05:28:05.533Z,93.10
2017-05-03T05:30:34.785Z,93.10
2017-05-03T05:33:03.751Z,93.00
2017-05-03T05:35:32.729Z,93.00
2017-05-03T05:38:02.014Z,92.90
2017-05-03T05:40:30.972Z,92.70
2017-05-03T05:43:00.669Z,92.60
2017-05-03T05:45:29.754Z,92.80
2017-05-03T05:47:58.775Z,92.80
2017-05-03T05:50:28.503Z,92.70
2017-05-03T05:52:57.565Z,92.50
2017-05-03T05:55:27.562Z,92.70
2017-05-03T05:57:56.505Z,92.30
2017-05-03T06:00:29.418Z,92.70
2017-05-03T06:02:58.376Z,93.20
2017-05-03T06:05:27.347Z,93.90
2017-05-03T06:07:57.063Z,92.60
2017-05-03T06:10:26.015Z,91.60
2017-05-03T06:12:55.282Z,90.80
2017-05-03T06:15:24.249Z,89.40
2017-05-03T06:17:53.205Z,87.60
2017-05-03T06:20:23.281Z,85.80
2017-05-03T06:22:52.235Z,84.30
2017-05-03T06:25:21.196Z,83.00
2017-05-03T06:27:50.184Z,81.60
2017-05-03T06:30:32.105Z,81.70
2017-05-03T06:33:01.331Z,81.00
2017-05-03T06:35:30.375Z,80.10
2017-05-03T06:38:00.126Z,78.90
2017-05-03T06:40:29.385Z,79.50
2017-05-03T06:42:59.093Z,79.50
2017-05-03T06:45:29.166Z,79.20
2017-05-03T06:47:58.127Z,78.50
2017-05-03T06:50:27.091Z,78.40
2017-05-03T06:52:57.155Z,77.90
2017-05-03T06:55:26.124Z,77.70
2017-05-03T06:57:55.099Z,77.30
2017-05-03T07:00:24.081Z,76.40
2017-05-03T07:02:53.799Z,75.70
2017-05-03T07:05:23.658Z,75.90
2017-05-03T07:07:52.641Z,75.40
2017-05-03T07:10:21.610Z,74.30
2017-05-03T07:12:50.959Z,74.40
2017-05-03T07:15:19.847Z,73.90
2017-05-03T07:17:48.829Z,73.20
2017-05-03T07:20:18.067Z,73.20
2017-05-03T07:22:47.756Z,73.50
2017-05-03T07:25:17.499Z,74.10
2017-05-03T07:27:46.435Z,75.60
2017-05-03T07:30:15.390Z,76.40
2017-05-03T07:32:44.729Z,76.30
2017-05-03T07:35:13.697Z,77.10
2017-05-03T07:37:42.675Z,77.50
2017-05-03T07:40:11.999Z,78.10
2017-05-03T07:42:40.974Z,78.50
2017-05-03T07:45:09.957Z,78.80
2017-05-03T07:47:39.372Z,78.70
2017-05-03T07:50:08.347Z,79.40
2017-05-03T07:52:37.304Z,79.10
2017-05-03T07:55:06.315Z,79.20
2017-05-03T07:57:35.272Z,77.80
2017-05-03T08:00:05.371Z,77.20
2017-05-03T08:02:34.325Z,77.20
2017-05-03T08:05:03.306Z,78.10
2017-05-03T08:07:32.278Z,78.70
2017-05-03T08:10:01.246Z,78.30
2017-05-03T08:12:31.895Z,77.80
2017-05-03T08:15:00.847Z,78.20
2017-05-03T08:17:30.145Z,78.30
2017-05-03T08:19:59.038Z,78.60
2017-05-03T08:22:28.046Z,78.70
2017-05-03T08:24:57.025Z,78.40
2017-05-03T08:27:25.998Z,78.50
2017-05-03T08:29:55.294Z,77.80
2017-05-03T08:32:24.262Z,77.70
2017-05-03T08:34:53.253Z,77.50
2017-05-03T08:37:22.231Z,77.70
2017-05-03T08:39:51.201Z,77.60
2017-05-03T08:42:21.284Z,76.50
2017-05-03T08:44:50.179Z,76.90
2017-05-03T08:47:19.945Z,76.70
2017-05-03T08:49:50.018Z,77.10
2017-05-03T08:52:19.725Z,76.70
2017-05-03T08:54:49.809Z,76.60
2017-05-03T08:57:18.777Z,77.00
2017-05-03T08:59:47.755Z,76.10
2017-05-03T09:02:16.749Z,76.60
2017-05-03T09:04:45.745Z,77.10
2017-05-03T09:07:14.848Z,77.10
2017-05-03T09:09:43.829Z,76.40
2017-05-03T09:12:13.159Z,75.00
2017-05-03T09:14:42.146Z,75.10
2017-05-03T09:17:11.029Z,75.60
2017-05-03T09:19:40.353Z,75.40
2017-05-03T09:22:09.311Z,75.50
2017-05-03T09:24:38.269Z,74.70
2017-05-03T09:27:07.262Z,74.30
2017-05-03T09:29:36.976Z,74.40
2017-05-03T09:32:06.247Z,73.30
2017-05-03T09:34:35.264Z,74.10
2017-05-03T09:37:04.144Z,74.50
2017-05-03T09:39:33.183Z,74.30
2017-05-03T09:42:02.131Z,74.30
2017-05-03T09:44:31.485Z,74.00
2017-05-03T09:47:00.460Z,74.30
2017-05-03T09:49:29.451Z,73.80
2017-05-03T09:51:58.485Z,72.90
2017-05-03T09:54:27.440Z,72.60
2017-05-03T09:56:56.761Z,72.80
2017-05-03T09:59:25.719Z,72.30
2017-05-03T10:01:54.667Z,72.10
2017-05-03T10:04:24.381Z,71.90
2017-05-03T10:06:54.134Z,71.80
2017-05-03T10:09:23.460Z,71.70
2017-05-03T10:11:52.440Z,70.00
2017-05-03T10:14:21.449Z,69.70
2017-05-03T10:16:50.415Z,69.70
2017-05-03T10:19:19.389Z,69.70
2017-05-03T10:21:48.700Z,70.40
2017-05-03T10:24:17.688Z,70.60
2017-05-03T10:26:46.655Z,69.90
2017-05-03T10:29:15.643Z,70.50
2017-05-03T10:31:44.598Z,71.80
2017-05-03T10:34:13.925Z,71.30
2017-05-03T10:36:42.893Z,70.20
2017-05-03T10:39:12.603Z,70.30
2017-05-03T10:41:42.335Z,70.70
2017-05-03T10:44:11.295Z,70.60
2017-05-03T10:46:40.664Z,70.50
2017-05-03T10:49:09.617Z,70.70
2017-05-03T10:51:38.568Z,70.90
2017-05-03T10:54:07.877Z,70.90
2017-05-03T10:56:37.595Z,71.20
2017-05-03T10:59:07.329Z,70.80
2017-05-03T11:01:36.592Z,70.20
2017-05-03T11:04:06.333Z,70.00
2017-05-03T11:06:35.303Z,69.10
2017-05-03T11:09:04.299Z,68.90
2017-05-03T11:11:34.010Z,69.80
2017-05-03T11:14:03.287Z,70.20
2017-05-03T11:16:33.002Z,71.00
2017-05-03T11:19:03.081Z,71.20
2017-05-03T11:21:32.005Z,71.00
2017-05-03T11:24:01.624Z,71.10
2017-05-03T11:26:30.657Z,70.90
2017-05-03T11:28:59.651Z,70.10
2017-05-03T11:31:28.673Z,70.90
2017-05-03T11:33:57.630Z,70.20
2017-05-03T11:36:26.661Z,69.10
2017-05-03T11:38:55.622Z,68.80
2017-05-03T11:41:24.599Z,67.80
2017-05-03T11:43:53.560Z,67.30
2017-05-03T11:46:22.900Z,67.80
2017-05-03T11:48:51.869Z,67.60
2017-05-03T11:51:20.875Z,69.30
2017-05-03T11:53:50.169Z,69.30
2017-05-03T11:56:19.129Z,69.40
2017-05-03T11:58:48.106Z,69.20
2017-05-03T12:01:17.170Z,69.00
2017-05-03T12:03:46.153Z,68.40
2017-05-03T12:06:15.454Z,68.30
2017-05-03T12:08:44.373Z,68.20
2017-05-03T12:11:13.349Z,68.80
2017-05-03T12:13:42.618Z,68.90
2017-05-03T12:16:11.597Z,68.90
2017-05-03T12:18:40.566Z,68.50
2017-05-03T12:21:09.843Z,68.20
2017-05-03T12:23:39.590Z,67.00
2017-05-03T12:26:08.467Z,64.00
2017-05-03T12:28:39.144Z,63.20
2017-05-03T12:31:08.126Z,62.20
2017-05-03T12:33:37.124Z,61.60
2017-05-03T12:36:06.141Z,62.00
2017-05-03T12:38:35.149Z,61.10
2017-05-03T12:41:04.126Z,60.80
2017-05-03T12:43:33.847Z,60.60
2017-05-03T12:46:03.547Z,60.20
2017-05-03T12:48:33.633Z,58.90
2017-05-03T12:51:02.606Z,57.00
2017-05-03T12:53:31.578Z,56.90
2017-05-03T12:56:00.498Z,56.00
2017-05-03T12:58:29.499Z,55.90
2017-05-03T13:00:58.551Z,55.90
2017-05-03T13:03:27.501Z,53.70
2017-05-03T13:05:56.885Z,52.30
2017-05-03T13:08:25.846Z,49.80
2017-05-03T13:10:54.797Z,50.10
2017-05-03T13:13:24.517Z,49.90
2017-05-03T13:15:53.460Z,49.00
2017-05-03T13:18:22.683Z,49.70
2017-05-03T13:20:52.369Z,50.60
2017-05-03T13:23:21.344Z,53.50
2017-05-03T13:25:50.326Z,55.20
2017-05-03T13:28:19.303Z,54.60
2017-05-03T13:30:48.273Z,52.50
2017-05-03T13:33:17.235Z,51.20
2017-05-03T13:35:46.200Z,50.30
2017-05-03T13:38:15.811Z,49.80
2017-05-03T13:40:45.100Z,49.40
2017-05-03T13:43:14.047Z,49.20
2017-05-03T13:45:43.011Z,46.80
2017-05-03T13:48:11.995Z,45.70
2017-05-03T13:50:41.139Z,46.20
2017-05-03T13:53:10.118Z,47.50
2017-05-03T13:55:39.082Z,48.80
2017-05-03T13:58:09.126Z,50.40
2017-05-03T14:00:38.138Z,51.50
2017-05-03T14:03:07.102Z,52.50
2017-05-03T14:05:36.484Z,53.40
2017-05-03T14:08:06.168Z,54.20
2017-05-03T14:10:35.145Z,54.80
2017-05-03T14:13:04.174Z,54.50
2017-05-03T14:15:33.163Z,54.30
2017-05-03T14:18:03.241Z,52.30
2017-05-03T14:20:32.226Z,51.70
2017-05-03T14:23:01.180Z,47.70
2017-05-03T14:25:30.186Z,46.50
2017-05-03T14:27:59.150Z,45.30
2017-05-03T14:30:28.422Z,43.80
2017-05-03T14:32:57.380Z,41.60
2017-05-03T14:35:26.346Z,41.80
2017-05-03T14:37:55.319Z,42.50
2017-05-03T14:40:24.273Z,42.30
2017-05-03T14:42:53.577Z,41.90
2017-05-03T14:45:22.557Z,40.90
2017-05-03T14:47:51.528Z,39.50
2017-05-03T14:50:20.854Z,39.50
2017-05-03T14:52:49.798Z,38.70
2017-05-03T14:55:18.793Z,40.90
2017-05-03T14:57:48.141Z,40.10
2017-05-03T15:00:17.440Z,41.50
2017-05-03T15:02:46.400Z,43.50
2017-05-03T15:05:15.691Z,45.00
2017-05-03T15:07:44.687Z,44.80
2017-05-03T15:10:13.652Z,44.50
2017-05-03T15:12:43.016Z,44.50
2017-05-03T15:15:11.968Z,45.00
2017-05-03T15:17:40.949Z,45.80
2017-05-03T15:20:10.283Z,46.90
2017-05-03T15:22:39.256Z,47.80
2017-05-03T15:25:08.237Z,49.00
2017-05-03T15:27:37.230Z,50.40
2017-05-03T15:30:06.203Z,51.80
2017-05-03T15:32:35.161Z,52.00
2017-05-03T15:35:04.878Z,52.10
2017-05-03T15:37:34.899Z,52.80
2017-05-03T15:40:04.601Z,53.00
2017-05-03T15:42:34.324Z,53.80
2017-05-03T15:45:03.671Z,54.90
2017-05-03T15:47:32.639Z,55.60
2017-05-03T15:50:01.600Z,55.80
2017-05-03T15:52:30.586Z,55.90
2017-05-03T15:55:00.206Z,56.20
2017-05-03T15:57:29.253Z,56.40
2017-05-03T15:59:58.238Z,56.80
2017-05-03T16:02:27.442Z,57.50
2017-05-03T16:04:56.437Z,58.10
2017-05-03T16:07:25.413Z,58.70
2017-05-03T16:09:54.818Z,59.20
2017-05-03T16:12:23.787Z,59.80
2017-05-03T16:14:52.761Z,60.10
2017-05-03T16:17:21.733Z,60.30
2017-05-03T16:19:50.696Z,60.90
2017-05-03T16:22:20.684Z,61.80
2017-05-03T16:24:49.800Z,61.50
2017-05-03T16:27:18.801Z,62.50
2017-05-03T16:29:48.841Z,63.70
2017-05-03T16:32:17.833Z,64.50
2017-05-03T16:34:46.810Z,64.80
2017-05-03T16:37:16.893Z,65.70
2017-05-03T16:39:45.853Z,66.60
2017-05-03T16:42:14.813Z,67.60
2017-05-03T16:44:44.030Z,68.10
2017-05-03T16:47:12.981Z,68.40
2017-05-03T16:49:43.000Z,68.20
2017-05-03T16:52:12.704Z,68.00
2017-05-03T16:54:41.654Z,68.20
2017-05-03T16:57:10.972Z,67.30
2017-05-03T16:59:39.939Z,67.60
2017-05-03T17:02:08.892Z,67.90
2017-05-03T17:04:38.248Z,66.90
2017-05-03T17:07:07.231Z,67.20
2017-05-03T17:09:36.369Z,67.10
2017-05-03T17:12:05.700Z,67.20
2017-05-03T17:14:34.673Z,66.50
2017-05-03T17:17:03.642Z,65.60
2017-05-03T17:19:33.376Z,66.30
2017-05-03T17:22:02.363Z,67.80
2017-05-03T17:24:31.669Z,68.50
2017-05-03T17:27:00.624Z,69.10
2017-05-03T17:29:29.589Z,70.00
2017-05-03T17:31:58.994Z,70.70
2017-05-03T17:34:27.961Z,71.40
2017-05-03T17:36:56.942Z,71.80
2017-05-03T17:39:26.217Z,73.00
2017-05-03T17:41:55.201Z,73.90
2017-05-03T17:44:24.907Z,74.60
2017-05-03T17:46:54.997Z,75.40
2017-05-03T17:49:23.883Z,76.00
2017-05-03T17:51:52.894Z,76.90
2017-05-03T17:54:22.983Z,77.70
2017-05-03T17:56:51.961Z,78.70
2017-05-03T17:59:20.945Z,79.10
2017-05-03T18:01:49.963Z,79.60
2017-05-03T18:04:18.941Z,79.80
2017-05-03T18:06:48.241Z,80.30
2017-05-03T18:09:17.237Z,80.80
2017-05-03T18:11:46.206Z,81.30
2017-05-03T18:14:15.504Z,81.70
2017-05-03T18:16:44.486Z,82.10
2017-05-03T18:19:13.472Z,82.80
2017-05-03T18:21:42.447Z,82.20
2017-05-03T18:24:11.442Z,82.50
2017-05-03T18:26:40.707Z,82.50
2017-05-03T18:29:09.795Z,82.50
2017-05-03T18:31:38.800Z,82.70
2017-05-03T18:34:08.529Z,82.90
2017-05-03T18:36:37.500Z,83.10
2017-05-03T18:39:06.601Z,83.10
2017-05-03T18:41:35.600Z,83.10
2017-05-03T18:44:05.677Z,83.20
2017-05-03T18:46:34.651Z,83.30
2017-05-03T18:49:03.645Z,83.30
2017-05-03T18:51:32.658Z,83.40
2017-05-03T18:54:02.397Z,84.30
2017-05-03T18:56:31.445Z,83.80
2017-05-03T18:59:00.459Z,84.00
2017-05-03T19:01:29.845Z,84.10
2017-05-03T19:03:58.866Z,84.10
2017-05-03T19:06:28.637Z,84.20
2017-05-03T19:08:57.975Z,84.40
2017-05-03T19:11:27.724Z,84.70
2017-05-03T19:13:56.730Z,84.80
2017-05-03T19:16:25.771Z,85.10
2017-05-03T19:18:54.773Z,85.40
2017-05-03T19:21:23.765Z,85.50
2017-05-03T19:23:52.827Z,85.70
2017-05-03T19:26:22.153Z,86.10
2017-05-03T19:28:51.164Z,86.40
2017-05-03T19:31:20.185Z,86.70
2017-05-03T19:33:49.511Z,87.00
2017-05-03T19:36:18.689Z,87.20
2017-05-03T19:38:47.666Z,87.50
2017-05-03T19:41:16.673Z,87.80
2017-05-03T19:43:45.639Z,88.00
2017-05-03T19:46:14.646Z,88.00
2017-05-03T19:48:43.638Z,88.20
2017-05-03T19:51:12.673Z,88.30
2017-05-03T19:53:42.402Z,88.40
2017-05-03T19:56:11.451Z,88.70
2017-05-03T19:58:40.877Z,88.90
2017-05-03T20:01:09.858Z,89.00
2017-05-03T20:03:38.846Z,89.10
2017-05-03T20:06:08.415Z,89.30
2017-05-03T20:08:38.698Z,89.50
2017-05-03T20:11:08.023Z,89.80
2017-05-03T20:13:37.013Z,90.00
2017-05-03T20:16:05.966Z,90.10
2017-05-03T20:18:35.974Z,90.20
2017-05-03T20:21:05.682Z,90.20
2017-05-03T20:23:35.783Z,90.30
2017-05-03T20:26:04.770Z,90.40
2017-05-03T20:28:33.820Z,90.50
2017-05-03T20:31:03.086Z,90.60
2017-05-03T20:33:32.846Z,90.60
2017-05-03T20:36:01.816Z,90.60
2017-05-03T20:38:31.163Z,90.70
2017-05-03T20:41:00.169Z,90.80
2017-05-03T20:43:29.920Z,90.80
2017-05-03T20:45:59.204Z,90.90
2017-05-03T20:48:28.188Z,91.00
2017-05-03T20:50:57.161Z,91.10
2017-05-03T20:53:26.895Z,91.10
2017-05-03T20:55:55.875Z,91.20
2017-05-03T20:58:25.143Z,91.50
2017-05-03T21:00:54.112Z,91.30
2017-05-03T21:03:23.135Z,91.40
2017-05-03T21:05:52.864Z,91.40
2017-05-03T21:08:21.830Z,91.40
2017-05-03T21:10:50.823Z,92.10
2017-05-03T21:13:19.773Z,91.70
2017-05-03T21:15:49.018Z,91.70
2017-05-03T21:18:18.708Z,91.60
2017-05-03T21:20:47.665Z,91.70
2017-05-03T21:23:16.555Z,91.60
2017-05-03T21:25:45.557Z,91.60
2017-05-03T21:28:14.802Z,91.90
2017-05-03T21:30:44.516Z,91.90
2017-05-03T21:33:14.219Z,92.00
2017-05-03T21:35:44.497Z,92.10
2017-05-03T21:38:13.937Z,92.20
2017-05-03T21:40:44.005Z,92.40
2017-05-03T21:43:12.961Z,92.50
2017-05-03T21:45:41.922Z,92.90
2017-05-03T21:48:10.896Z,92.80
2017-05-03T21:50:39.865Z,92.80
2017-05-03T21:53:08.866Z,92.80
2017-05-03T21:55:37.828Z,92.70
2017-05-03T21:58:07.171Z,92.80
2017-05-03T22:00:36.118Z,92.90
2017-05-03T22:03:05.085Z,93.00
2017-05-03T22:05:34.433Z,93.20
2017-05-03T22:08:04.183Z,92.90
2017-05-03T22:10:33.907Z,93.00
2017-05-03T22:13:02.885Z,93.10
2017-05-03T22:15:32.615Z,93.20
2017-05-03T22:18:01.853Z,93.30
2017-05-03T22:20:30.829Z,93.30
2017-05-03T22:22:59.786Z,93.30
2017-05-03T22:25:28.780Z,93.50
2017-05-03T22:27:57.725Z,93.20
2017-05-03T22:30:26.740Z,93.10
2017-05-03T22:32:56.434Z,93.10
2017-05-03T22:35:25.425Z,93.10
2017-05-03T22:37:54.381Z,93.10
2017-05-03T22:40:23.359Z,93.20
2017-05-03T22:42:52.337Z,93.20
2017-05-03T22:45:21.681Z,93.20
2017-05-03T22:47:50.659Z,93.20
2017-05-03T22:50:19.640Z,93.30
2017-05-03T22:52:48.626Z,93.30
2017-05-03T22:55:17.587Z,93.30
2017-05-03T22:57:46.836Z,93.20
2017-05-03T23:00:15.806Z,93.30
2017-05-03T23:02:44.758Z,93.30
2017-05-03T23:05:14.474Z,93.30
2017-05-03T23:07:44.112Z,93.40
2017-05-03T23:10:13.210Z,93.40
2017-05-03T23:12:42.188Z,93.40
2017-05-03T23:15:11.432Z,93.50
2017-05-03T23:17:40.419Z,93.60
2017-05-03T23:20:12.640Z,93.40
2017-05-03T23:22:41.572Z,93.30
2017-05-03T23:25:10.514Z,93.30
2017-05-03T23:27:39.776Z,93.20
2017-05-03T23:30:08.717Z,93.30
2017-05-03T23:32:37.682Z,93.20
2017-05-03T23:35:06.930Z,93.20
2017-05-03T23:37:36.661Z,93.20
2017-05-03T23:40:05.614Z,93.30
2017-05-03T23:42:34.930Z,93.10
2017-05-03T23:45:03.877Z,93.10
2017-05-03T23:47:32.835Z,93.10
2017-05-03T23:50:02.089Z,93.20
2017-05-03T23:52:31.076Z,93.20
2017-05-03T23:55:01.278Z,93.20
2017-05-03T23:57:30.631Z,93.30
2017-05-03T23:59:59.613Z,93.40
